Big Bear Station Historical Data
Daily Summary for May 13, 2019 Units:  English    Metric   Both
Next Day »
Daily Weekly Monthly Yearly Custom
  High: Low: Average:
Temperature: 70.5 °F 38.5 °F 53.6 °F
Dew Point: 43.9 °F 34.1 °F 37.6 °F
Humidity: 91% 29% 60%
Wind Speed: 9.9mph 0mph 1.4mph
Wind Gust: -999mph - -
Wind- - SW
Pressure: 23.56 in 23.52 in -
Precipitation: 0 in    
Historical Graphs
 
 
Tabular Data for May 13, 2019
Time Temperature Dew Point Pressure Wind Wind Speed Wind Gust Humidity Rainfall Rate (Hourly)
00:13 43 °F 37.6 °F 23.53 in Calm   -999 mph 81% 0.00 in
00:28 43 °F 37.9 °F 23.53 in Calm   -999 mph 82% 0.00 in
00:43 42.8 °F 38.3 °F 23.54 in Calm   -999 mph 84% 0.00 in
00:58 43 °F 38.8 °F 23.53 in Calm   -999 mph 85% 0.00 in
01:14 43 °F 39.1 °F 23.53 in Calm   -999 mph 86% 0.00 in
01:29 42.4 °F 38.5 °F 23.52 in Calm   -999 mph 86% 0.00 in
01:44 42.1 °F 38.5 °F 23.52 in NW 3.7 mph -999 mph 87% 0.00 in
01:59 42.4 °F 39.1 °F 23.52 in Calm   -999 mph 88% 0.00 in
02:14 42.1 °F 39.1 °F 23.52 in Calm   -999 mph 89% 0.00 in
02:30 42.1 °F 39.4 °F 23.52 in Calm   -999 mph 90% 0.00 in
02:45 41.9 °F 38.9 °F 23.52 in Calm   -999 mph 89% 0.00 in
03:00 41.5 °F 37.6 °F 23.52 in Calm   -999 mph 86% 0.00 in
03:15 40.8 °F 36.9 °F 23.52 in Calm   -999 mph 86% 0.00 in
03:30 40.8 °F 36.6 °F 23.52 in Calm   -999 mph 85% 0.00 in
03:46 40.5 °F 36 °F 23.52 in Calm   -999 mph 84% 0.00 in
04:01 40.5 °F 36 °F 23.52 in Calm   -999 mph 84% 0.00 in
04:16 40.1 °F 36.3 °F 23.52 in Calm   -999 mph 86% 0.00 in
04:31 39.9 °F 36.6 °F 23.52 in Calm   -999 mph 88% 0.00 in
04:46 39.9 °F 36.6 °F 23.52 in Calm   -999 mph 88% 0.00 in
05:02 39.4 °F 36.1 °F 23.52 in Calm   -999 mph 88% 0.00 in
05:17 39.2 °F 35.9 °F 23.52 in Calm   -999 mph 88% 0.00 in
05:32 38.8 °F 35.3 °F 23.52 in Calm   -999 mph 87% 0.00 in
05:47 38.8 °F 35.3 °F 23.53 in Calm   -999 mph 87% 0.00 in
06:02 38.5 °F 35 °F 23.53 in Calm   -999 mph 87% 0.00 in
06:18 38.5 °F 35.3 °F 23.53 in Calm   -999 mph 88% 0.00 in
06:33 39.2 °F 36.2 °F 23.54 in Calm   -999 mph 89% 0.00 in
06:48 39.4 °F 36.1 °F 23.54 in Calm   -999 mph 88% 0.00 in
07:03 39.7 °F 36.7 °F 23.54 in Calm   -999 mph 89% 0.00 in
07:19 40.3 °F 37.3 °F 23.54 in Calm   -999 mph 89% 0.00 in
07:34 41.2 °F 38.8 °F 23.54 in Calm   -999 mph 91% 0.00 in
07:49 42.6 °F 40.2 °F 23.54 in Calm   -999 mph 91% 0.00 in
08:04 44.4 °F 40.2 °F 23.55 in Calm   -999 mph 85% 0.00 in
08:19 46.2 °F 40.7 °F 23.54 in Calm   -999 mph 81% 0.00 in
08:35 48.6 °F 42.4 °F 23.54 in Calm   -999 mph 79% 0.00 in
08:50 50 °F 41.3 °F 23.54 in Calm   -999 mph 72% 0.00 in
09:05 52.3 °F 42.1 °F 23.55 in Calm   -999 mph 68% 0.00 in
09:20 55.2 °F 42.4 °F 23.54 in Calm   -999 mph 62% 0.00 in
09:35 60.1 °F 36.3 °F 23.54 in South 2.2 mph -999 mph 41% 0.00 in
09:51 60.8 °F 35 °F 23.54 in NW 3.2 mph -999 mph 38% 0.00 in
10:06 62.4 °F 35.8 °F 23.55 in NNW 4.2 mph -999 mph 37% 0.00 in
10:21 62.1 °F 34.1 °F 23.55 in South 5.3 mph -999 mph 35% 0.00 in
10:36 63 °F 34.9 °F 23.55 in South 3.7 mph -999 mph 35% 0.00 in
10:51 63.3 °F 35.2 °F 23.55 in West 1.7 mph -999 mph 35% 0.00 in
11:07 66 °F 37.6 °F 23.55 in SW 1.1 mph -999 mph 35% 0.00 in
11:22 66.6 °F 38.1 °F 23.55 in Calm   -999 mph 35% 0.00 in
11:37 65.8 °F 37.4 °F 23.55 in NW 4.7 mph -999 mph 35% 0.00 in
11:52 67.1 °F 38.5 °F 23.55 in Calm   -999 mph 35% 0.00 in
12:08 69.1 °F 39.6 °F 23.55 in NW 1.7 mph -999 mph 34% 0.00 in
12:23 68.4 °F 38.2 °F 23.55 in NNW 1.1 mph -999 mph 33% 0.00 in
12:38 69.8 °F 37.8 °F 23.55 in South 3.7 mph -999 mph 31% 0.00 in
12:53 68.2 °F 35.6 °F 23.54 in West 1.7 mph -999 mph 30% 0.00 in
13:08 70.2 °F 37.3 °F 23.54 in SW 2.2 mph -999 mph 30% 0.00 in
13:24 70.3 °F 36.5 °F 23.55 in ESE 2.2 mph -999 mph 29% 0.00 in
13:39 69.4 °F 36.6 °F 23.55 in NE 2.7 mph -999 mph 30% 0.00 in
13:55 68.7 °F 36 °F 23.54 in SSE 2.2 mph -999 mph 30% 0.00 in
14:10 68.7 °F 37.6 °F 23.54 in NNW 2.2 mph -999 mph 32% 0.00 in
14:25 70 °F 38 °F 23.54 in NE 6.8 mph -999 mph 31% 0.00 in
14:40 68.5 °F 37.5 °F 23.54 in NW 6.3 mph -999 mph 32% 0.00 in
14:55 69.1 °F 36.4 °F 23.54 in NW 9.9 mph -999 mph 30% 0.00 in
15:11 68.4 °F 35.8 °F 23.54 in NW 8.3 mph -999 mph 30% 0.00 in
15:27 69.1 °F 37.2 °F 23.54 in West 9.4 mph -999 mph 31% 0.00 in
15:42 67.6 °F 35.9 °F 23.53 in ESE 2.7 mph -999 mph 31% 0.00 in
15:58 67.8 °F 38.4 °F 23.53 in SW 2.7 mph -999 mph 34% 0.00 in
16:13 65.3 °F 36.9 °F 23.53 in NE 4.2 mph -999 mph 35% 0.00 in
16:29 66.9 °F 37.6 °F 23.53 in WNW 4.7 mph -999 mph 34% 0.00 in
16:44 67.6 °F 38.2 °F 23.53 in South 4.2 mph -999 mph 34% 0.00 in
16:59 70.5 °F 39.2 °F 23.53 in NNE 4.2 mph -999 mph 32% 0.00 in
17:14 66.6 °F 38.8 °F 23.52 in ESE 1.7 mph -999 mph 36% 0.00 in
17:29 67.8 °F 36.9 °F 23.52 in South 2.7 mph -999 mph 32% 0.00 in
17:45 67.6 °F 38.2 °F 23.52 in SSW 1.7 mph -999 mph 34% 0.00 in
18:00 68.5 °F 39 °F 23.52 in SE 1.1 mph -999 mph 34% 0.00 in
18:15 68.9 °F 38.6 °F 23.52 in SW 4.7 mph -999 mph 33% 0.00 in
18:30 64.2 °F 37.4 °F 23.52 in North 2.2 mph -999 mph 37% 0.00 in
18:45 61.3 °F 36.8 °F 23.53 in Calm   -999 mph 40% 0.00 in
19:01 61 °F 37.1 °F 23.53 in Calm   -999 mph 41% 0.00 in
19:16 59 °F 41.9 °F 23.53 in Calm   -999 mph 53% 0.00 in
19:31 56.8 °F 43.9 °F 23.53 in Calm   -999 mph 62% 0.00 in
19:46 55.6 °F 43.6 °F 23.53 in Calm   -999 mph 64% 0.00 in
20:01 53.8 °F 40.7 °F 23.53 in Calm   -999 mph 61% 0.00 in
20:17 52.5 °F 35.9 °F 23.54 in Calm   -999 mph 53% 0.00 in
20:32 51.8 °F 35.2 °F 23.54 in Calm   -999 mph 53% 0.00 in
20:47 50.9 °F 35.8 °F 23.54 in Calm   -999 mph 56% 0.00 in
21:02 49.8 °F 35.6 °F 23.54 in Calm   -999 mph 58% 0.00 in
21:18 49.1 °F 37 °F 23.54 in Calm   -999 mph 63% 0.00 in
21:33 48.6 °F 37.8 °F 23.54 in Calm   -999 mph 66% 0.00 in
21:48 48 °F 37.2 °F 23.55 in Calm   -999 mph 66% 0.00 in
22:03 47.5 °F 36.7 °F 23.55 in Calm   -999 mph 66% 0.00 in
22:18 46.8 °F 37.2 °F 23.56 in Calm   -999 mph 69% 0.00 in
22:34 46.4 °F 37.9 °F 23.56 in Calm   -999 mph 72% 0.00 in
22:49 45.7 °F 36.1 °F 23.56 in Calm   -999 mph 69% 0.00 in
23:04 45.3 °F 35.7 °F 23.56 in Calm   -999 mph 69% 0.00 in
23:19 45.1 °F 35.2 °F 23.56 in Calm   -999 mph 68% 0.00 in
23:34 44.8 °F 37 °F 23.56 in Calm   -999 mph 74% 0.00 in
23:50 44.6 °F 37.5 °F 23.55 in Calm   -999 mph 76% 0.00 in
Big Bear CA Weather